sensor_id;sensor_type;location;lat;lon;timestamp;temperature;humidity
19817;DHT22;68323;49.394;8.434;2023-04-01T00:02:06;11.80;99.90
19817;DHT22;68323;49.394;8.434;2023-04-01T00:04:32;11.80;99.90
19817;DHT22;68323;49.394;8.434;2023-04-01T00:06:58;11.80;99.90
19817;DHT22;68323;49.394;8.434;2023-04-01T00:09:23;11.80;99.90
19817;DHT22;68323;49.394;8.434;2023-04-01T00:11:49;11.80;99.90
19817;DHT22;68323;49.394;8.434;2023-04-01T00:14:14;11.80;99.90
19817;DHT22;68323;49.394;8.434;2023-04-01T00:16:40;11.90;99.90
19817;DHT22;68323;49.394;8.434;2023-04-01T00:19:06;11.80;99.90
19817;DHT22;68323;49.394;8.434;2023-04-01T00:21:31;11.80;99.90
19817;DHT22;68323;49.394;8.434;2023-04-01T00:23:57;11.90;99.90
19817;DHT22;68323;49.394;8.434;2023-04-01T00:26:23;11.90;99.90
19817;DHT22;68323;49.394;8.434;2023-04-01T00:28:50;11.90;99.90
19817;DHT22;68323;49.394;8.434;2023-04-01T00:31:15;12.00;99.90
19817;DHT22;68323;49.394;8.434;2023-04-01T00:33:41;12.00;99.90
19817;DHT22;68323;49.394;8.434;2023-04-01T00:36:18;12.00;99.90
19817;DHT22;68323;49.394;8.434;2023-04-01T00:38:44;12.10;99.90
19817;DHT22;68323;49.394;8.434;2023-04-01T00:41:11;12.00;99.90
19817;DHT22;68323;49.394;8.434;2023-04-01T00:43:46;12.10;99.90
19817;DHT22;68323;49.394;8.434;2023-04-01T00:46:12;12.10;99.90
19817;DHT22;68323;49.394;8.434;2023-04-01T00:48:41;12.10;99.90
19817;DHT22;68323;49.394;8.434;2023-04-01T00:51:11;12.10;99.90
19817;DHT22;68323;49.394;8.434;2023-04-01T00:53:43;12.10;99.90
19817;DHT22;68323;49.394;8.434;2023-04-01T00:56:27;12.10;99.90
19817;DHT22;68323;49.394;8.434;2023-04-01T00:59:00;12.10;99.90
19817;DHT22;68323;49.394;8.434;2023-04-01T01:01:28;12.00;99.90
19817;DHT22;68323;49.394;8.434;2023-04-01T01:03:55;12.00;99.90
19817;DHT22;68323;49.394;8.434;2023-04-01T01:09:23;12.00;99.90
19817;DHT22;68323;49.394;8.434;2023-04-01T01:11:57;11.90;99.90
19817;DHT22;68323;49.394;8.434;2023-04-01T01:17:43;11.90;99.90
19817;DHT22;68323;49.394;8.434;2023-04-01T01:28:58;11.90;99.90
19817;DHT22;68323;49.394;8.434;2023-04-01T01:31:56;11.90;99.90
19817;DHT22;68323;49.394;8.434;2023-04-01T01:34:30;11.90;99.90
19817;DHT22;68323;49.394;8.434;2023-04-01T01:37:03;11.90;99.90
19817;DHT22;68323;49.394;8.434;2023-04-01T01:39:32;11.90;99.90
19817;DHT22;68323;49.394;8.434;2023-04-01T01:42:02;11.90;99.90
19817;DHT22;68323;49.394;8.434;2023-04-01T01:44:29;11.90;99.90
19817;DHT22;68323;49.394;8.434;2023-04-01T01:46:56;12.00;99.90
19817;DHT22;68323;49.394;8.434;2023-04-01T01:49:23;12.00;99.90
19817;DHT22;68323;49.394;8.434;2023-04-01T01:51:49;12.00;99.90
19817;DHT22;68323;49.394;8.434;2023-04-01T01:54:18;12.00;99.90
19817;DHT22;68323;49.394;8.434;2023-04-01T01:56:47;12.00;99.90
19817;DHT22;68323;49.394;8.434;2023-04-01T01:59:15;12.00;99.90
19817;DHT22;68323;49.394;8.434;2023-04-01T02:01:46;12.10;99.90
19817;DHT22;68323;49.394;8.434;2023-04-01T02:04:14;12.00;99.90
19817;DHT22;68323;49.394;8.434;2023-04-01T02:06:50;12.00;99.90
19817;DHT22;68323;49.394;8.434;2023-04-01T02:09:18;12.00;99.90
19817;DHT22;68323;49.394;8.434;2023-04-01T02:11:52;12.00;99.90
19817;DHT22;68323;49.394;8.434;2023-04-01T02:14:31;12.00;99.90
19817;DHT22;68323;49.394;8.434;2023-04-01T02:17:05;12.00;99.90
19817;DHT22;68323;49.394;8.434;2023-04-01T02:19:53;12.00;99.90
19817;DHT22;68323;49.394;8.434;2023-04-01T02:22:31;12.00;99.90
19817;DHT22;68323;49.394;8.434;2023-04-01T02:25:04;12.00;99.90
19817;DHT22;68323;49.394;8.434;2023-04-01T02:27:31;12.00;99.90
19817;DHT22;68323;49.394;8.434;2023-04-01T02:29:57;12.00;99.90
19817;DHT22;68323;49.394;8.434;2023-04-01T02:32:23;12.00;99.90
19817;DHT22;68323;49.394;8.434;2023-04-01T02:34:49;12.10;99.90
19817;DHT22;68323;49.394;8.434;2023-04-01T02:37:16;12.10;99.90
19817;DHT22;68323;49.394;8.434;2023-04-01T02:39:41;12.10;99.90
19817;DHT22;68323;49.394;8.434;2023-04-01T02:42:08;12.00;99.90
19817;DHT22;68323;49.394;8.434;2023-04-01T02:44:33;12.00;99.90
19817;DHT22;68323;49.394;8.434;2023-04-01T02:46:59;12.00;99.90
19817;DHT22;68323;49.394;8.434;2023-04-01T02:49:25;12.00;99.90
19817;DHT22;68323;49.394;8.434;2023-04-01T02:51:50;11.90;99.90
19817;DHT22;68323;49.394;8.434;2023-04-01T02:54:17;12.00;99.90
19817;DHT22;68323;49.394;8.434;2023-04-01T02:56:43;11.90;99.90
19817;DHT22;68323;49.394;8.434;2023-04-01T02:59:08;11.90;99.90
19817;DHT22;68323;49.394;8.434;2023-04-01T03:01:34;11.90;99.90
19817;DHT22;68323;49.394;8.434;2023-04-01T03:04:00;11.90;99.90
19817;DHT22;68323;49.394;8.434;2023-04-01T03:06:25;11.90;99.90
19817;DHT22;68323;49.394;8.434;2023-04-01T03:08:51;11.90;99.90
19817;DHT22;68323;49.394;8.434;2023-04-01T03:11:16;11.90;99.90
19817;DHT22;68323;49.394;8.434;2023-04-01T03:13:42;11.90;99.90
19817;DHT22;68323;49.394;8.434;2023-04-01T03:16:07;12.00;99.90
19817;DHT22;68323;49.394;8.434;2023-04-01T03:18:33;12.00;99.90
19817;DHT22;68323;49.394;8.434;2023-04-01T03:21:19;12.00;99.90
19817;DHT22;68323;49.394;8.434;2023-04-01T03:23:45;11.90;99.90
19817;DHT22;68323;49.394;8.434;2023-04-01T03:26:11;12.00;99.90
19817;DHT22;68323;49.394;8.434;2023-04-01T03:28:36;11.90;99.90
19817;DHT22;68323;49.394;8.434;2023-04-01T03:31:02;11.90;99.90
19817;DHT22;68323;49.394;8.434;2023-04-01T03:33:28;11.90;99.90
19817;DHT22;68323;49.394;8.434;2023-04-01T03:35:53;11.90;99.90
19817;DHT22;68323;49.394;8.434;2023-04-01T03:38:19;11.90;99.90
19817;DHT22;68323;49.394;8.434;2023-04-01T03:40:45;11.90;99.90
19817;DHT22;68323;49.394;8.434;2023-04-01T03:43:11;11.90;99.90
19817;DHT22;68323;49.394;8.434;2023-04-01T03:45:44;12.00;99.90
19817;DHT22;68323;49.394;8.434;2023-04-01T03:48:10;12.00;99.90
19817;DHT22;68323;49.394;8.434;2023-04-01T03:50:35;12.00;99.90
19817;DHT22;68323;49.394;8.434;2023-04-01T03:53:01;12.00;99.90
19817;DHT22;68323;49.394;8.434;2023-04-01T03:55:26;12.00;99.90
19817;DHT22;68323;49.394;8.434;2023-04-01T03:57:52;12.00;99.90
19817;DHT22;68323;49.394;8.434;2023-04-01T04:00:18;12.00;99.90
19817;DHT22;68323;49.394;8.434;2023-04-01T04:02:43;12.00;99.90
19817;DHT22;68323;49.394;8.434;2023-04-01T04:05:09;12.00;99.90
19817;DHT22;68323;49.394;8.434;2023-04-01T04:07:35;12.00;99.90
19817;DHT22;68323;49.394;8.434;2023-04-01T04:10:01;12.00;99.90
19817;DHT22;68323;49.394;8.434;2023-04-01T04:12:26;11.90;99.90
19817;DHT22;68323;49.394;8.434;2023-04-01T04:14:54;11.90;99.90
19817;DHT22;68323;49.394;8.434;2023-04-01T04:17:20;11.90;99.90
19817;DHT22;68323;49.394;8.434;2023-04-01T04:19:45;11.90;99.90
19817;DHT22;68323;49.394;8.434;2023-04-01T04:22:11;11.90;99.90
19817;DHT22;68323;49.394;8.434;2023-04-01T04:24:37;11.90;99.90
19817;DHT22;68323;49.394;8.434;2023-04-01T04:27:03;11.90;99.90
19817;DHT22;68323;49.394;8.434;2023-04-01T04:29:29;11.90;99.90
19817;DHT22;68323;49.394;8.434;2023-04-01T04:31:55;11.90;99.90
19817;DHT22;68323;49.394;8.434;2023-04-01T04:34:20;11.90;99.90
19817;DHT22;68323;49.394;8.434;2023-04-01T04:36:47;11.80;99.90
19817;DHT22;68323;49.394;8.434;2023-04-01T04:39:13;11.80;99.90
19817;DHT22;68323;49.394;8.434;2023-04-01T04:41:38;11.70;99.90
19817;DHT22;68323;49.394;8.434;2023-04-01T04:44:04;11.80;99.90
19817;DHT22;68323;49.394;8.434;2023-04-01T04:46:30;11.70;99.90
19817;DHT22;68323;49.394;8.434;2023-04-01T04:48:56;11.70;99.90
19817;DHT22;68323;49.394;8.434;2023-04-01T04:51:22;11.70;99.90
19817;DHT22;68323;49.394;8.434;2023-04-01T04:53:48;11.60;99.90
19817;DHT22;68323;49.394;8.434;2023-04-01T04:56:18;11.60;99.90
19817;DHT22;68323;49.394;8.434;2023-04-01T04:58:44;11.60;99.90
19817;DHT22;68323;49.394;8.434;2023-04-01T05:01:15;11.60;99.90
19817;DHT22;68323;49.394;8.434;2023-04-01T05:03:41;11.50;99.90
19817;DHT22;68323;49.394;8.434;2023-04-01T05:06:09;11.50;99.90
19817;DHT22;68323;49.394;8.434;2023-04-01T05:08:35;11.50;99.90
19817;DHT22;68323;49.394;8.434;2023-04-01T05:11:01;11.50;99.90
19817;DHT22;68323;49.394;8.434;2023-04-01T05:13:28;11.50;99.90
19817;DHT22;68323;49.394;8.434;2023-04-01T05:15:54;11.50;99.90
19817;DHT22;68323;49.394;8.434;2023-04-01T05:18:19;11.50;99.90
19817;DHT22;68323;49.394;8.434;2023-04-01T05:20:49;11.50;99.90
19817;DHT22;68323;49.394;8.434;2023-04-01T05:23:15;11.40;99.90
19817;DHT22;68323;49.394;8.434;2023-04-01T05:25:41;11.40;99.90
19817;DHT22;68323;49.394;8.434;2023-04-01T05:28:07;11.40;99.90
19817;DHT22;68323;49.394;8.434;2023-04-01T05:30:33;11.50;99.90
19817;DHT22;68323;49.394;8.434;2023-04-01T05:32:58;11.50;99.90
19817;DHT22;68323;49.394;8.434;2023-04-01T05:35:24;11.50;99.90
19817;DHT22;68323;49.394;8.434;2023-04-01T05:37:49;11.60;99.90
19817;DHT22;68323;49.394;8.434;2023-04-01T05:40:15;11.60;99.90
19817;DHT22;68323;49.394;8.434;2023-04-01T05:42:40;11.70;99.90
19817;DHT22;68323;49.394;8.434;2023-04-01T05:45:06;11.70;99.90
19817;DHT22;68323;49.394;8.434;2023-04-01T05:47:32;11.70;99.90
19817;DHT22;68323;49.394;8.434;2023-04-01T05:49:57;11.70;99.90
19817;DHT22;68323;49.394;8.434;2023-04-01T05:52:23;11.80;99.90
19817;DHT22;68323;49.394;8.434;2023-04-01T05:54:49;11.80;99.90
19817;DHT22;68323;49.394;8.434;2023-04-01T05:57:15;11.70;99.90
19817;DHT22;68323;49.394;8.434;2023-04-01T05:59:40;11.80;99.90
19817;DHT22;68323;49.394;8.434;2023-04-01T06:02:06;11.80;99.90
19817;DHT22;68323;49.394;8.434;2023-04-01T06:04:37;11.80;99.90
19817;DHT22;68323;49.394;8.434;2023-04-01T06:07:11;11.80;99.90
19817;DHT22;68323;49.394;8.434;2023-04-01T06:09:37;11.80;99.90
19817;DHT22;68323;49.394;8.434;2023-04-01T06:17:58;11.90;99.90
19817;DHT22;68323;49.394;8.434;2023-04-01T06:20:42;11.80;99.90
19817;DHT22;68323;49.394;8.434;2023-04-01T06:31:57;11.90;99.90
19817;DHT22;68323;49.394;8.434;2023-04-01T06:34:52;11.90;99.90
19817;DHT22;68323;49.394;8.434;2023-04-01T06:40:34;11.80;99.90
19817;DHT22;68323;49.394;8.434;2023-04-01T06:43:27;11.80;99.90
19817;DHT22;68323;49.394;8.434;2023-04-01T06:46:09;11.90;99.90
19817;DHT22;68323;49.394;8.434;2023-04-01T06:51:47;11.80;99.90
19817;DHT22;68323;49.394;8.434;2023-04-01T06:54:42;11.80;99.90
19817;DHT22;68323;49.394;8.434;2023-04-01T06:57:37;11.80;99.90
19817;DHT22;68323;49.394;8.434;2023-04-01T07:03:21;11.90;99.90
19817;DHT22;68323;49.394;8.434;2023-04-01T07:05:47;11.90;99.90
19817;DHT22;68323;49.394;8.434;2023-04-01T07:08:18;12.00;99.90
19817;DHT22;68323;49.394;8.434;2023-04-01T07:10:55;12.00;99.90
19817;DHT22;68323;49.394;8.434;2023-04-01T07:13:31;12.00;99.90
19817;DHT22;68323;49.394;8.434;2023-04-01T07:16:31;12.10;99.90
19817;DHT22;68323;49.394;8.434;2023-04-01T07:19:15;12.10;99.90
19817;DHT22;68323;49.394;8.434;2023-04-01T07:21:48;12.20;99.90
19817;DHT22;68323;49.394;8.434;2023-04-01T07:24:37;12.20;99.90
19817;DHT22;68323;49.394;8.434;2023-04-01T07:27:08;12.20;99.90
19817;DHT22;68323;49.394;8.434;2023-04-01T07:29:35;12.30;99.90
19817;DHT22;68323;49.394;8.434;2023-04-01T07:32:30;12.30;99.90
19817;DHT22;68323;49.394;8.434;2023-04-01T07:49:06;12.80;99.90
19817;DHT22;68323;49.394;8.434;2023-04-01T07:51:46;12.80;99.90
19817;DHT22;68323;49.394;8.434;2023-04-01T07:54:38;12.90;99.90
19817;DHT22;68323;49.394;8.434;2023-04-01T07:57:22;13.00;99.90
19817;DHT22;68323;49.394;8.434;2023-04-01T08:00:15;13.10;99.90
19817;DHT22;68323;49.394;8.434;2023-04-01T08:03:09;13.30;99.90
19817;DHT22;68323;49.394;8.434;2023-04-01T08:05:44;13.30;99.90
19817;DHT22;68323;49.394;8.434;2023-04-01T08:12:17;13.50;99.90
19817;DHT22;68323;49.394;8.434;2023-04-01T08:17:19;13.30;99.90
19817;DHT22;68323;49.394;8.434;2023-04-01T08:22:29;13.20;99.90
19817;DHT22;68323;49.394;8.434;2023-04-01T08:24:59;13.20;99.90
19817;DHT22;68323;49.394;8.434;2023-04-01T08:27:39;13.10;99.90
19817;DHT22;68323;49.394;8.434;2023-04-01T08:30:25;13.00;99.90
19817;DHT22;68323;49.394;8.434;2023-04-01T08:32:56;13.00;99.90
19817;DHT22;68323;49.394;8.434;2023-04-01T08:35:37;13.00;99.90
19817;DHT22;68323;49.394;8.434;2023-04-01T08:38:12;12.90;99.90
19817;DHT22;68323;49.394;8.434;2023-04-01T08:40:56;12.90;99.90
19817;DHT22;68323;49.394;8.434;2023-04-01T08:48:35;12.80;99.90
19817;DHT22;68323;49.394;8.434;2023-04-01T09:02:39;12.90;99.90
19817;DHT22;68323;49.394;8.434;2023-04-01T09:10:44;12.90;99.90
19817;DHT22;68323;49.394;8.434;2023-04-01T09:19:04;12.90;99.90
19817;DHT22;68323;49.394;8.434;2023-04-01T09:27:02;12.80;99.90
19817;DHT22;68323;49.394;8.434;2023-04-01T09:38:00;12.50;99.90
19817;DHT22;68323;49.394;8.434;2023-04-01T09:54:44;12.70;99.90
19817;DHT22;68323;49.394;8.434;2023-04-01T10:00:36;12.70;99.90
19817;DHT22;68323;49.394;8.434;2023-04-01T10:08:51;12.70;99.90
19817;DHT22;68323;49.394;8.434;2023-04-01T10:11:52;12.70;99.90
19817;DHT22;68323;49.394;8.434;2023-04-01T10:25:42;13.00;99.90
19817;DHT22;68323;49.394;8.434;2023-04-01T10:28:46;13.00;99.90
19817;DHT22;68323;49.394;8.434;2023-04-01T10:33:55;13.10;99.90
19817;DHT22;68323;49.394;8.434;2023-04-01T10:41:53;13.20;99.90
19817;DHT22;68323;49.394;8.434;2023-04-01T11:01:38;13.10;99.90
19817;DHT22;68323;49.394;8.434;2023-04-01T11:13:02;13.40;99.90
19817;DHT22;68323;49.394;8.434;2023-04-01T11:43:25;13.70;99.90
19817;DHT22;68323;49.394;8.434;2023-04-01T11:46:11;13.70;99.90
19817;DHT22;68323;49.394;8.434;2023-04-01T11:48:49;13.70;99.90
19817;DHT22;68323;49.394;8.434;2023-04-01T11:51:22;13.80;99.90
19817;DHT22;68323;49.394;8.434;2023-04-01T11:57:03;13.80;99.90
19817;DHT22;68323;49.394;8.434;2023-04-01T12:02:48;13.90;99.90
19817;DHT22;68323;49.394;8.434;2023-04-01T12:08:31;13.80;99.90
19817;DHT22;68323;49.394;8.434;2023-04-01T12:11:21;13.80;99.90
19817;DHT22;68323;49.394;8.434;2023-04-01T12:13:57;13.80;99.90
19817;DHT22;68323;49.394;8.434;2023-04-01T12:17:02;13.70;99.90
19817;DHT22;68323;49.394;8.434;2023-04-01T12:31:06;14.00;99.90
19817;DHT22;68323;49.394;8.434;2023-04-01T12:33:47;14.00;99.90
19817;DHT22;68323;49.394;8.434;2023-04-01T12:36:37;14.10;99.90
19817;DHT22;68323;49.394;8.434;2023-04-01T12:39:35;14.00;99.90
19817;DHT22;68323;49.394;8.434;2023-04-01T12:42:36;14.10;99.90
19817;DHT22;68323;49.394;8.434;2023-04-01T12:48:05;14.30;99.90
19817;DHT22;68323;49.394;8.434;2023-04-01T12:53:56;14.40;99.90
19817;DHT22;68323;49.394;8.434;2023-04-01T12:59:32;14.40;99.90
19817;DHT22;68323;49.394;8.434;2023-04-01T13:07:35;14.50;99.90
19817;DHT22;68323;49.394;8.434;2023-04-01T13:10:42;14.40;99.90
19817;DHT22;68323;49.394;8.434;2023-04-01T13:13:39;14.30;99.90
19817;DHT22;68323;49.394;8.434;2023-04-01T13:16:19;14.20;99.90
19817;DHT22;68323;49.394;8.434;2023-04-01T13:21:50;14.20;99.90
19817;DHT22;68323;49.394;8.434;2023-04-01T13:24:46;14.10;99.90
19817;DHT22;68323;49.394;8.434;2023-04-01T13:27:25;14.10;99.90
19817;DHT22;68323;49.394;8.434;2023-04-01T13:30:30;14.20;99.90
19817;DHT22;68323;49.394;8.434;2023-04-01T13:36:23;14.20;99.90
19817;DHT22;68323;49.394;8.434;2023-04-01T13:39:12;14.20;99.90
19817;DHT22;68323;49.394;8.434;2023-04-01T13:44:38;14.20;99.90
19817;DHT22;68323;49.394;8.434;2023-04-01T13:47:33;14.20;99.90
19817;DHT22;68323;49.394;8.434;2023-04-01T13:53:25;14.40;99.40
19817;DHT22;68323;49.394;8.434;2023-04-01T14:26:42;14.20;98.70
19817;DHT22;68323;49.394;8.434;2023-04-01T14:29:29;14.10;98.80
19817;DHT22;68323;49.394;8.434;2023-04-01T14:32:18;14.10;98.90
19817;DHT22;68323;49.394;8.434;2023-04-01T14:37:58;14.10;99.30
19817;DHT22;68323;49.394;8.434;2023-04-01T14:40:42;14.00;99.20
19817;DHT22;68323;49.394;8.434;2023-04-01T14:49:13;14.00;98.90
19817;DHT22;68323;49.394;8.434;2023-04-01T14:51:36;14.00;99.00
19817;DHT22;68323;49.394;8.434;2023-04-01T14:56:40;13.90;99.30
19817;DHT22;68323;49.394;8.434;2023-04-01T14:59:14;13.90;99.40
19817;DHT22;68323;49.394;8.434;2023-04-01T15:04:50;13.80;99.70
19817;DHT22;68323;49.394;8.434;2023-04-01T15:10:40;13.80;99.40
19817;DHT22;68323;49.394;8.434;2023-04-01T15:21:37;13.70;99.90
19817;DHT22;68323;49.394;8.434;2023-04-01T15:24:07;13.70;99.90
19817;DHT22;68323;49.394;8.434;2023-04-01T15:27:28;13.70;99.90
19817;DHT22;68323;49.394;8.434;2023-04-01T15:29:58;13.70;99.90
19817;DHT22;68323;49.394;8.434;2023-04-01T15:35:17;13.80;99.90
19817;DHT22;68323;49.394;8.434;2023-04-01T15:37:54;13.70;99.80
19817;DHT22;68323;49.394;8.434;2023-04-01T15:46:13;13.80;99.90
19817;DHT22;68323;49.394;8.434;2023-04-01T15:49:04;13.80;99.90
19817;DHT22;68323;49.394;8.434;2023-04-01T15:54:57;13.90;99.60
19817;DHT22;68323;49.394;8.434;2023-04-01T15:58:00;14.00;99.60
19817;DHT22;68323;49.394;8.434;2023-04-01T16:00:41;14.00;99.60
19817;DHT22;68323;49.394;8.434;2023-04-01T16:09:06;13.90;99.40
19817;DHT22;68323;49.394;8.434;2023-04-01T16:11:57;13.80;99.50
19817;DHT22;68323;49.394;8.434;2023-04-01T16:14:37;13.80;99.30
19817;DHT22;68323;49.394;8.434;2023-04-01T16:17:19;13.80;98.70
19817;DHT22;68323;49.394;8.434;2023-04-01T16:19:59;13.80;98.50
19817;DHT22;68323;49.394;8.434;2023-04-01T16:22:35;13.80;97.90
19817;DHT22;68323;49.394;8.434;2023-04-01T16:25:39;13.80;97.20
19817;DHT22;68323;49.394;8.434;2023-04-01T16:28:24;13.80;97.40
19817;DHT22;68323;49.394;8.434;2023-04-01T16:31:14;13.80;96.60
19817;DHT22;68323;49.394;8.434;2023-04-01T16:36:48;13.80;96.50
19817;DHT22;68323;49.394;8.434;2023-04-01T16:39:37;13.80;96.60
19817;DHT22;68323;49.394;8.434;2023-04-01T16:47:16;13.70;96.50
19817;DHT22;68323;49.394;8.434;2023-04-01T16:49:57;13.70;96.90
19817;DHT22;68323;49.394;8.434;2023-04-01T16:52:40;13.70;96.70
19817;DHT22;68323;49.394;8.434;2023-04-01T16:55:50;13.70;96.80
19817;DHT22;68323;49.394;8.434;2023-04-01T16:58:25;13.70;96.40
19817;DHT22;68323;49.394;8.434;2023-04-01T17:00:58;13.70;95.90
19817;DHT22;68323;49.394;8.434;2023-04-01T17:03:44;13.70;95.90
19817;DHT22;68323;49.394;8.434;2023-04-01T17:06:23;13.80;95.90
19817;DHT22;68323;49.394;8.434;2023-04-01T17:09:28;13.80;95.90
19817;DHT22;68323;49.394;8.434;2023-04-01T17:23:01;14.00;95.30
19817;DHT22;68323;49.394;8.434;2023-04-01T17:31:05;14.00;95.10
19817;DHT22;68323;49.394;8.434;2023-04-01T17:59:01;13.20;96.60
19817;DHT22;68323;49.394;8.434;2023-04-01T18:02:35;13.20;96.60
19817;DHT22;68323;49.394;8.434;2023-04-01T18:04:47;13.10;96.70
19817;DHT22;68323;49.394;8.434;2023-04-01T18:07:35;13.10;96.70
19817;DHT22;68323;49.394;8.434;2023-04-01T18:21:19;12.90;96.90
19817;DHT22;68323;49.394;8.434;2023-04-01T18:26:40;12.90;97.40
19817;DHT22;68323;49.394;8.434;2023-04-01T18:31:51;12.90;97.80
19817;DHT22;68323;49.394;8.434;2023-04-01T18:35:01;12.90;98.00
19817;DHT22;68323;49.394;8.434;2023-04-01T18:39:57;12.80;99.30
19817;DHT22;68323;49.394;8.434;2023-04-01T18:45:26;12.70;99.70
19817;DHT22;68323;49.394;8.434;2023-04-01T18:50:58;12.60;99.90
19817;DHT22;68323;49.394;8.434;2023-04-01T18:53:42;12.60;99.90
19817;DHT22;68323;49.394;8.434;2023-04-01T18:56:23;12.60;99.90
19817;DHT22;68323;49.394;8.434;2023-04-01T18:59:17;12.50;99.90
19817;DHT22;68323;49.394;8.434;2023-04-01T19:04:40;12.50;99.90
19817;DHT22;68323;49.394;8.434;2023-04-01T19:21:42;12.30;99.90
19817;DHT22;68323;49.394;8.434;2023-04-01T19:24:24;12.30;99.90
19817;DHT22;68323;49.394;8.434;2023-04-01T19:40:57;12.20;99.90
19817;DHT22;68323;49.394;8.434;2023-04-01T19:43:47;12.10;99.90
19817;DHT22;68323;49.394;8.434;2023-04-01T19:54:35;12.20;99.90
19817;DHT22;68323;49.394;8.434;2023-04-01T19:57:16;12.10;99.90
19817;DHT22;68323;49.394;8.434;2023-04-01T19:59:50;12.10;99.90
19817;DHT22;68323;49.394;8.434;2023-04-01T20:11:14;12.10;99.90
19817;DHT22;68323;49.394;8.434;2023-04-01T20:16:55;12.10;99.90
19817;DHT22;68323;49.394;8.434;2023-04-01T20:21:59;12.00;99.90
19817;DHT22;68323;49.394;8.434;2023-04-01T20:24:30;12.00;99.90
19817;DHT22;68323;49.394;8.434;2023-04-01T20:27:20;12.00;99.90
19817;DHT22;68323;49.394;8.434;2023-04-01T20:41:05;11.90;99.90
19817;DHT22;68323;49.394;8.434;2023-04-01T20:48:57;11.80;99.90
19817;DHT22;68323;49.394;8.434;2023-04-01T20:51:32;11.80;99.90
19817;DHT22;68323;49.394;8.434;2023-04-01T20:55:21;11.80;99.90
19817;DHT22;68323;49.394;8.434;2023-04-01T20:57:42;11.80;99.90
19817;DHT22;68323;49.394;8.434;2023-04-01T21:19:37;11.60;99.90
19817;DHT22;68323;49.394;8.434;2023-04-01T21:25:36;11.60;99.90
19817;DHT22;68323;49.394;8.434;2023-04-01T21:46:05;11.50;99.90
19817;DHT22;68323;49.394;8.434;2023-04-01T21:48:47;11.50;99.90
19817;DHT22;68323;49.394;8.434;2023-04-01T21:54:19;11.60;99.90
19817;DHT22;68323;49.394;8.434;2023-04-01T21:57:08;11.60;99.90
19817;DHT22;68323;49.394;8.434;2023-04-01T22:05:52;11.60;99.90
19817;DHT22;68323;49.394;8.434;2023-04-01T22:13:42;11.60;99.90
19817;DHT22;68323;49.394;8.434;2023-04-01T22:16:27;11.60;99.90
19817;DHT22;68323;49.394;8.434;2023-04-01T22:22:01;11.60;99.90
19817;DHT22;68323;49.394;8.434;2023-04-01T22:27:46;11.60;99.90
19817;DHT22;68323;49.394;8.434;2023-04-01T22:30:29;11.50;99.90
19817;DHT22;68323;49.394;8.434;2023-04-01T22:33:14;11.60;99.90
19817;DHT22;68323;49.394;8.434;2023-04-01T22:41:50;11.60;99.90
19817;DHT22;68323;49.394;8.434;2023-04-01T22:50:17;11.60;99.90
19817;DHT22;68323;49.394;8.434;2023-04-01T22:52:46;11.60;99.90
19817;DHT22;68323;49.394;8.434;2023-04-01T22:55:25;11.60;99.90
19817;DHT22;68323;49.394;8.434;2023-04-01T22:58:00;11.60;99.90
19817;DHT22;68323;49.394;8.434;2023-04-01T23:00:38;11.60;99.90
19817;DHT22;68323;49.394;8.434;2023-04-01T23:03:14;11.60;99.90
19817;DHT22;68323;49.394;8.434;2023-04-01T23:05:48;11.60;99.90
19817;DHT22;68323;49.394;8.434;2023-04-01T23:08:43;11.60;99.90
19817;DHT22;68323;49.394;8.434;2023-04-01T23:11:22;11.60;99.90
19817;DHT22;68323;49.394;8.434;2023-04-01T23:14:21;11.50;99.90
19817;DHT22;68323;49.394;8.434;2023-04-01T23:19:48;11.50;99.90
19817;DHT22;68323;49.394;8.434;2023-04-01T23:22:30;11.50;99.90
19817;DHT22;68323;49.394;8.434;2023-04-01T23:35:59;11.50;99.90
19817;DHT22;68323;49.394;8.434;2023-04-01T23:38:34;11.50;99.90
19817;DHT22;68323;49.394;8.434;2023-04-01T23:41:01;11.50;99.90
19817;DHT22;68323;49.394;8.434;2023-04-01T23:43:30;11.50;99.90
19817;DHT22;68323;49.394;8.434;2023-04-01T23:45:59;11.50;99.90
19817;DHT22;68323;49.394;8.434;2023-04-01T23:48:40;11.50;99.90
19817;DHT22;68323;49.394;8.434;2023-04-01T23:51:38;11.50;99.90
19817;DHT22;68323;49.394;8.434;2023-04-01T23:54:18;11.50;99.90
19817;DHT22;68323;49.394;8.434;2023-04-01T23:56:48;11.50;99.90
19817;DHT22;68323;49.394;8.434;2023-04-01T23:59:18;11.50;99.90
